This is the latest recevied weather packets stored in our database for station/object KA1JKB. If no packets are shown the sender has not sent any weather packets the latest 10 day(s).
| Time | Temp. | Humidity | Pressure | Rain* | Wind** | Luminosity | Snow |
|---|---|---|---|---|---|---|---|
| 1777739365 | 7.22° C | 52% | 1015.7 hPa | 0 mm | - | 282 W/m² | - |
| 1777739062 | 8.33° C | 49% | 1015.5 hPa | 0 mm | - | 316 W/m² | - |
| 1777738759 | 7.78° C | 49% | 1015.3 hPa | 0 mm | - | 826 W/m² | - |
| 1777738455 | 6.67° C | 53% | 1015.6 hPa | 0 mm | - | 799 W/m² | - |
| 1777738153 | 7.22° C | 50% | 1015.6 hPa | 0 mm | - | 314 W/m² | - |
| 1777737851 | 7.78° C | 52% | 1015.9 hPa | 0 mm | - | 327 W/m² | - |
| 1777737550 | 7.22° C | 55% | 1015.7 hPa | 0 mm | - | 533 W/m² | - |
| 1777737248 | 7.22° C | 54% | 1015.7 hPa | 0 mm | - | 543 W/m² | - |
| 1777736942 | 6.67° C | 54% | 1015.9 hPa | 0 mm | - | 346 W/m² | - |
| 1777736025 | 7.78° C | 52% | 1015.7 hPa | 0 mm | - | 1063 W/m² | - |
| 1777735717 | 7.22° C | 52% | 1015.6 hPa | 0 mm | - | 951 W/m² | - |
| 1777735414 | 6.11° C | 62% | 1015.5 hPa | 0 mm | - | 936 W/m² | - |
| 1777735112 | 6.67° C | 57% | 1015.4 hPa | 0 mm | - | 183 W/m² | - |
| 1777734808 | 7.78° C | 52% | 1015.6 hPa | 0 mm | - | 233 W/m² | - |
| 1777734506 | 6.67° C | 59% | 1015.5 hPa | 0 mm | - | 995 W/m² | - |
| 1777734202 | 6.67° C | 57% | 1015.4 hPa | 0 mm | - | 208 W/m² | - |
| 1777733898 | 6.11° C | 57% | 1015.4 hPa | 0 mm | - | 213 W/m² | - |
| 1777733595 | 6.11° C | 55% | 1015.4 hPa | 0 mm | - | 253 W/m² | - |
| 1777733291 | 7.22° C | 54% | 1015.5 hPa | 0 mm | - | 1003 W/m² | - |
| 1777732989 | 6.67° C | 57% | 1015.6 hPa | 0 mm | - | 248 W/m² | - |
| 1777732684 | 7.22° C | 56% | 1015.4 hPa | 0 mm | - | 307 W/m² | - |
| 1777732381 | 6.11° C | 58% | 1015.3 hPa | 0 mm | - | 858 W/m² | - |
| 1777732080 | 6.67° C | 57% | 1015.5 hPa | 0 mm | - | 809 W/m² | - |
| 1777731776 | 6.67° C | 57% | 1015.6 hPa | 0 mm | - | 753 W/m² | - |
| 1777731473 | 6.11° C | 62% | 1015.5 hPa | 0 mm | - | 718 W/m² | - |
* Rain latest hour (hover to see other rain measurements)
** Current wind speed in m/s (hover to see current wind gust speed)